Time;durP1;ratioP1;P1;durP2;ratioP2;P2;SDS_P1;SDS_P2;PMS_P1;PMS_P2;Temp;Humidity;BMP_temperature;BMP_pressure;BME280_temperature;BME280_humidity;BME280_pressure;Samples;Min_cycle;Max_cycle;Signal;HPM_P1;HPM_P2
2021/01/20 00:02:09;;;;;;;9.35;4.95;;;2.60;99.90;;;;;;5071217;28;20039;-77
2021/01/20 00:04:37;;;;;;;8.73;4.72;;;2.60;99.90;;;;;;5074759;28;20066;-77
2021/01/20 00:07:02;;;;;;;9.25;4.82;;;2.60;99.90;;;;;;5077448;28;20087;-77
2021/01/20 00:09:28;;;;;;;9.15;5.10;;;2.60;99.90;;;;;;5074526;28;20446;-77
2021/01/20 00:11:58;;;;;;;8.40;5.15;;;2.60;99.90;;;;;;5075265;28;20371;-77
2021/01/20 00:14:28;;;;;;;10.00;5.32;;;2.60;99.90;;;;;;5077928;28;20030;-77
2021/01/20 00:16:55;;;;;;;9.40;4.53;;;2.60;99.90;;;;;;5061548;28;20123;-77
2021/01/20 00:19:21;;;;;;;9.05;4.97;;;2.60;99.90;;;;;;5089121;28;20039;-77
2021/01/20 00:21:47;;;;;;;7.93;4.88;;;2.60;99.90;;;;;;5084644;28;20036;-77
2021/01/20 00:24:17;;;;;;;8.95;5.07;;;2.70;99.90;;;;;;5077070;28;20158;-77
2021/01/20 00:26:48;;;;;;;9.32;4.95;;;2.70;99.90;;;;;;5076637;28;20028;-77
2021/01/20 00:29:13;;;;;;;8.20;4.50;;;2.80;99.90;;;;;;5077133;28;20020;-77
2021/01/20 00:31:39;;;;;;;8.43;4.90;;;2.80;99.90;;;;;;5077266;28;20066;-78
2021/01/20 00:34:07;;;;;;;8.18;4.45;;;2.80;99.90;;;;;;5075285;28;20056;-77
2021/01/20 00:36:33;;;;;;;9.20;4.70;;;2.80;99.90;;;;;;5079858;28;20092;-77
2021/01/20 00:39:01;;;;;;;8.95;4.90;;;2.70;99.90;;;;;;5088781;28;20132;-77
2021/01/20 00:41:31;;;;;;;9.95;4.90;;;2.70;99.90;;;;;;5083260;28;20024;-77
2021/01/20 00:43:58;;;;;;;8.90;4.80;;;2.80;99.90;;;;;;5074948;28;20457;-78
2021/01/20 00:46:23;;;;;;;8.00;4.88;;;2.70;99.90;;;;;;5074646;28;20067;-77
2021/01/20 00:48:51;;;;;;;8.52;4.82;;;2.80;99.90;;;;;;5075381;28;20627;-78
2021/01/20 00:51:17;;;;;;;8.82;4.60;;;2.70;99.90;;;;;;5081954;28;20020;-77
2021/01/20 00:53:45;;;;;;;8.00;4.43;;;2.70;99.90;;;;;;5090780;28;20018;-77
2021/01/20 00:56:13;;;;;;;9.02;4.78;;;2.70;99.90;;;;;;5089208;28;20048;-78
2021/01/20 00:58:41;;;;;;;7.32;4.30;;;2.80;99.90;;;;;;5091453;28;20027;-77
2021/01/20 01:01:07;;;;;;;8.98;4.68;;;2.70;99.90;;;;;;5089023;28;20029;-77
2021/01/20 01:03:37;;;;;;;8.75;4.60;;;2.70;99.90;;;;;;5088149;28;20429;-78
2021/01/20 01:06:03;;;;;;;8.40;4.85;;;2.70;99.90;;;;;;5086411;28;20028;-77
2021/01/20 01:08:28;;;;;;;7.90;4.75;;;2.60;99.90;;;;;;5089110;28;20021;-77
2021/01/20 01:10:59;;;;;;;9.15;4.90;;;2.70;99.90;;;;;;5090367;28;20016;-77
2021/01/20 01:13:27;;;;;;;8.70;4.68;;;2.70;99.90;;;;;;5087448;28;20046;-77
2021/01/20 01:15:55;;;;;;;8.00;4.65;;;2.70;99.90;;;;;;5076047;28;20040;-77
2021/01/20 01:18:20;;;;;;;7.47;4.53;;;2.70;99.90;;;;;;5076251;28;20472;-77
2021/01/20 01:20:46;;;;;;;8.85;5.03;;;2.70;99.90;;;;;;5076552;28;20039;-77
2021/01/20 01:23:12;;;;;;;8.85;4.55;;;2.70;99.90;;;;;;5075205;28;20039;-77
2021/01/20 01:25:37;;;;;;;8.20;4.80;;;2.70;99.90;;;;;;5076367;28;20060;-77
2021/01/20 01:28:17;;;;;;;8.63;4.80;;;2.70;99.90;;;;;;5087630;28;20031;-77
2021/01/20 01:30:45;;;;;;;8.95;4.93;;;2.70;99.90;;;;;;5080172;28;20040;-77
2021/01/20 01:33:13;;;;;;;9.30;4.88;;;2.70;99.90;;;;;;5074585;28;20472;-77
2021/01/20 01:35:39;;;;;;;8.85;4.72;;;2.80;99.90;;;;;;5074683;28;20089;-77
2021/01/20 01:38:10;;;;;;;7.60;4.90;;;2.80;99.90;;;;;;5075457;28;20028;-77
2021/01/20 01:40:37;;;;;;;8.50;5.15;;;2.90;99.90;;;;;;5074034;28;20055;-77
2021/01/20 01:43:05;;;;;;;7.00;4.38;;;2.90;99.90;;;;;;5078894;28;20081;-77
2021/01/20 01:45:31;;;;;;;8.00;4.70;;;2.80;99.90;;;;;;5089461;28;20024;-77
2021/01/20 01:47:59;;;;;;;9.10;5.28;;;2.90;99.90;;;;;;5088350;28;20069;-78
2021/01/20 01:50:27;;;;;;;8.20;4.25;;;2.80;99.90;;;;;;5078910;28;20398;-77
2021/01/20 01:52:52;;;;;;;9.30;4.78;;;2.80;99.90;;;;;;5088079;28;20020;-77
2021/01/20 01:55:20;;;;;;;7.50;4.45;;;2.90;99.90;;;;;;5091014;28;20027;-77
2021/01/20 01:57:46;;;;;;;7.97;4.47;;;2.90;99.90;;;;;;5088362;28;20032;-77
2021/01/20 02:00:14;;;;;;;8.05;4.60;;;2.90;99.90;;;;;;5088738;28;20057;-78
2021/01/20 02:02:40;;;;;;;8.18;4.60;;;2.90;99.90;;;;;;5089182;28;20064;-77
2021/01/20 02:05:08;;;;;;;7.38;4.35;;;2.90;99.90;;;;;;5076516;28;20162;-77
2021/01/20 02:07:38;;;;;;;8.77;4.47;;;2.90;99.90;;;;;;5085481;28;20607;-77
2021/01/20 02:10:05;;;;;;;9.43;5.00;;;2.90;99.90;;;;;;5085838;28;20459;-77
2021/01/20 02:13:01;;;;;;;8.45;4.53;;;2.90;99.90;;;;;;5074405;28;20691;-78
2021/01/20 02:16:02;;;;;;;7.80;4.63;;;3.00;99.90;;;;;;5090060;28;20032;-77
2021/01/20 02:18:31;;;;;;;7.65;4.43;;;3.00;99.90;;;;;;5080424;28;20117;-77
2021/01/20 02:21:34;;;;;;;8.18;4.63;;;3.00;99.90;;;;;;5073046;28;20027;-77
2021/01/20 02:24:02;;;;;;;;;;;3.00;99.90;;;;;;5056831;28;20111;-77
2021/01/20 02:26:33;;;;;;;7.45;4.45;;;2.90;99.90;;;;;;5073869;28;19931;-77
2021/01/20 02:29:08;;;;;;;7.45;4.70;;;3.00;99.90;;;;;;5073148;28;20635;-77
2021/01/20 02:31:36;;;;;;;7.35;4.25;;;3.00;99.90;;;;;;5074362;28;20677;-78
2021/01/20 02:34:03;;;;;;;7.30;3.78;;;3.00;99.90;;;;;;5072723;28;20062;-77
2021/01/20 02:36:31;;;;;;;8.18;4.22;;;3.10;99.90;;;;;;5058400;28;20164;-77
2021/01/20 02:39:00;;;;;;;8.10;4.43;;;3.00;99.90;;;;;;5069410;28;20042;-77
2021/01/20 02:41:29;;;;;;;7.63;4.30;;;3.00;99.90;;;;;;5084517;28;20178;-77
2021/01/20 02:43:58;;;;;;;6.97;4.10;;;3.00;99.90;;;;;;5064846;28;20031;-77
2021/01/20 02:46:24;;;;;;;7.15;3.85;;;3.00;99.90;;;;;;5072398;28;20028;-77
2021/01/20 02:48:52;;;;;;;6.60;3.90;;;3.00;99.90;;;;;;5074771;28;20508;-77
2021/01/20 02:51:27;;;;;;;7.03;3.95;;;3.00;99.90;;;;;;5074219;28;20036;-77
2021/01/20 02:53:55;;;;;;;6.45;3.70;;;3.00;99.90;;;;;;5072463;28;20043;-77
2021/01/20 02:56:21;;;;;;;7.40;4.10;;;3.00;99.90;;;;;;5074264;28;20024;-77
2021/01/20 02:58:47;;;;;;;8.07;4.28;;;3.00;99.90;;;;;;5071030;28;20023;-77
2021/01/20 03:01:15;;;;;;;7.75;4.10;;;2.90;99.90;;;;;;5088173;28;21987;-77
2021/01/20 03:03:44;;;;;;;7.93;3.92;;;2.90;99.90;;;;;;5053695;28;20055;-78
2021/01/20 03:06:10;;;;;;;7.00;3.80;;;2.90;99.90;;;;;;5058051;28;20063;-77
2021/01/20 03:08:35;;;;;;;9.02;4.13;;;3.00;99.90;;;;;;5069213;28;20051;-77
2021/01/20 03:11:05;;;;;;;7.30;3.70;;;2.90;99.90;;;;;;5063617;28;20138;-77
2021/01/20 03:13:33;;;;;;;7.43;3.80;;;2.90;99.90;;;;;;5083373;28;20028;-77
2021/01/20 03:15:59;;;;;;;7.97;4.05;;;2.90;99.90;;;;;;5073805;28;20755;-77
2021/01/20 03:18:27;;;;;;;8.88;4.35;;;2.90;99.90;;;;;;5076200;28;20032;-77
2021/01/20 03:20:55;;;;;;;7.85;3.97;;;2.80;99.90;;;;;;5073799;28;20661;-77
2021/01/20 03:23:23;;;;;;;6.82;3.70;;;2.80;99.90;;;;;;5081443;28;20093;-77
2021/01/20 03:25:51;;;;;;;6.65;3.60;;;2.90;99.90;;;;;;5079546;28;20111;-76
2021/01/20 03:28:19;;;;;;;7.68;3.55;;;2.90;99.90;;;;;;5085936;28;20085;-77
2021/01/20 03:30:47;;;;;;;5.90;3.30;;;2.90;99.90;;;;;;5086853;28;20048;-76
2021/01/20 03:33:12;;;;;;;6.75;3.40;;;2.90;99.90;;;;;;5087129;28;20093;-77
2021/01/20 03:35:40;;;;;;;6.32;3.55;;;2.90;99.90;;;;;;5087154;28;20036;-77
2021/01/20 03:38:06;;;;;;;7.72;4.00;;;2.90;99.90;;;;;;5087504;28;20030;-76
2021/01/20 03:40:32;;;;;;;5.97;3.42;;;2.90;99.90;;;;;;5091213;28;20430;-77
2021/01/20 03:42:58;;;;;;;6.20;3.40;;;2.90;99.90;;;;;;5081358;28;20038;-77
2021/01/20 03:45:26;;;;;;;6.38;3.70;;;3.00;99.90;;;;;;5092103;28;20457;-77
2021/01/20 03:47:53;;;;;;;6.30;3.20;;;3.00;99.90;;;;;;5089998;28;20043;-77
2021/01/20 03:50:22;;;;;;;6.47;3.53;;;3.00;99.90;;;;;;5078434;28;20026;-77
2021/01/20 03:52:50;;;;;;;10.45;3.78;;;3.00;99.90;;;;;;5079060;28;20028;-77
2021/01/20 03:55:15;;;;;;;5.88;3.47;;;3.00;99.90;;;;;;5079507;28;20089;-77
2021/01/20 03:57:43;;;;;;;6.43;3.30;;;3.00;99.90;;;;;;5077334;28;20779;-77
2021/01/20 04:00:09;;;;;;;6.68;3.38;;;3.00;99.90;;;;;;5078098;28;20058;-77
2021/01/20 04:02:37;;;;;;;5.57;2.92;;;3.00;99.90;;;;;;5075998;28;20020;-77
2021/01/20 04:05:06;;;;;;;6.97;3.10;;;3.00;99.90;;;;;;5077636;28;20057;-77
2021/01/20 04:07:31;;;;;;;6.20;3.38;;;3.00;99.90;;;;;;5086964;28;20548;-77
2021/01/20 04:09:57;;;;;;;6.38;3.00;;;3.00;99.90;;;;;;5090309;28;20072;-77
2021/01/20 04:12:25;;;;;;;6.03;3.03;;;3.00;99.90;;;;;;5090847;28;20028;-77
2021/01/20 04:14:50;;;;;;;5.72;3.10;;;3.10;99.90;;;;;;5090638;28;20059;-77
2021/01/20 04:17:16;;;;;;;6.43;3.13;;;3.10;99.90;;;;;;5089582;28;20441;-77
2021/01/20 04:19:44;;;;;;;6.70;3.10;;;3.10;99.90;;;;;;5081965;28;20039;-77
2021/01/20 04:22:10;;;;;;;6.88;3.30;;;3.10;99.90;;;;;;5075628;28;20098;-77
2021/01/20 04:24:35;;;;;;;5.20;3.00;;;3.20;99.90;;;;;;5075814;28;20040;-77
2021/01/20 04:27:03;;;;;;;6.95;3.20;;;3.20;99.90;;;;;;5069526;28;20147;-77
2021/01/20 04:29:29;;;;;;;5.63;3.13;;;3.20;99.90;;;;;;5075809;28;20035;-77
2021/01/20 04:31:54;;;;;;;7.85;3.40;;;3.20;99.90;;;;;;5073202;28;20044;-76
2021/01/20 04:34:20;;;;;;;6.95;3.45;;;3.20;99.90;;;;;;5074920;28;20048;-77
2021/01/20 04:36:48;;;;;;;6.45;3.33;;;3.20;99.90;;;;;;5053548;28;20036;-77
2021/01/20 04:39:16;;;;;;;5.72;3.33;;;3.20;99.90;;;;;;5076170;28;20153;-76
2021/01/20 04:41:42;;;;;;;6.22;3.10;;;3.20;99.90;;;;;;5075576;28;20047;-77
2021/01/20 04:44:09;;;;;;;5.07;2.83;;;3.20;99.90;;;;;;5057561;28;20480;-77
2021/01/20 04:46:37;;;;;;;7.28;3.17;;;3.20;99.90;;;;;;5074170;28;20060;-77
2021/01/20 04:49:05;;;;;;;6.55;3.13;;;3.20;99.90;;;;;;5076145;28;20020;-77
2021/01/20 04:51:37;;;;;;;5.65;3.20;;;3.20;99.90;;;;;;5073889;28;20040;-77
2021/01/20 04:54:07;;;;;;;5.35;3.00;;;3.20;99.90;;;;;;5061433;28;20035;-77
2021/01/20 04:56:38;;;;;;;6.82;3.35;;;3.20;99.90;;;;;;5074614;28;20041;-76
2021/01/20 04:59:09;;;;;;;6.32;3.30;;;3.20;99.90;;;;;;5074881;28;20111;-77
2021/01/20 05:01:37;;;;;;;6.85;3.10;;;3.20;99.90;;;;;;5075710;28;20032;-77
2021/01/20 05:04:03;;;;;;;6.68;3.50;;;3.20;99.90;;;;;;5075395;28;20054;-77
2021/01/20 05:06:32;;;;;;;6.60;2.90;;;3.20;99.90;;;;;;5081344;28;20567;-77
2021/01/20 05:08:58;;;;;;;7.18;3.40;;;3.20;99.90;;;;;;5089178;28;20039;-76
2021/01/20 05:11:49;;;;;;;5.60;2.97;;;3.20;99.90;;;;;;5076601;28;20024;-77
2021/01/20 05:14:18;;;;;;;6.28;3.30;;;3.30;99.90;;;;;;5075914;28;20550;-77
2021/01/20 05:16:53;;;;;;;7.32;3.17;;;3.20;99.90;;;;;;5075313;28;20730;-76
2021/01/20 05:19:39;;;;;;;6.05;2.90;;;3.30;99.90;;;;;;5077034;28;20031;-77
2021/01/20 05:22:13;;;;;;;5.30;2.80;;;3.30;99.90;;;;;;5073713;28;20074;-77
2021/01/20 05:24:41;;;;;;;5.82;3.03;;;3.30;99.90;;;;;;5075617;28;20028;-77
2021/01/20 05:27:09;;;;;;;6.13;3.20;;;3.30;99.90;;;;;;5075833;28;20081;-77
2021/01/20 05:29:35;;;;;;;6.47;3.20;;;3.40;99.90;;;;;;5081660;28;20020;-77
2021/01/20 05:32:21;;;;;;;6.03;3.15;;;3.40;99.90;;;;;;5089409;28;20549;-76
2021/01/20 05:35:09;;;;;;;8.23;3.05;;;3.40;99.90;;;;;;5078815;28;20039;-77
2021/01/20 05:37:44;;;;;;;5.38;2.90;;;3.40;99.90;;;;;;5079130;28;20031;-76
2021/01/20 05:40:14;;;;;;;5.65;2.80;;;3.40;99.90;;;;;;5086498;28;20062;-76
2021/01/20 05:42:50;;;;;;;6.72;3.10;;;3.40;99.90;;;;;;5082282;28;20030;-76
2021/01/20 05:45:16;;;;;;;5.93;2.90;;;3.40;99.90;;;;;;5079619;28;20023;-76
2021/01/20 05:48:02;;;;;;;7.03;3.30;;;3.40;99.90;;;;;;5090941;28;20032;-77
2021/01/20 05:50:28;;;;;;;5.50;3.17;;;3.40;99.90;;;;;;5090769;28;20028;-76
2021/01/20 05:53:10;;;;;;;5.35;3.30;;;3.40;99.90;;;;;;5055693;28;20565;-76
2021/01/20 05:55:37;;;;;;;4.38;2.53;;;3.50;99.90;;;;;;5088750;28;20028;-76
2021/01/20 05:58:06;;;;;;;5.88;2.95;;;3.50;99.90;;;;;;5084882;28;20032;-76
2021/01/20 06:00:33;;;;;;;4.68;2.83;;;3.50;99.90;;;;;;5068815;28;20035;-76
2021/01/20 06:03:04;;;;;;;6.63;3.30;;;3.50;99.90;;;;;;5072576;28;20116;-76
2021/01/20 06:05:32;;;;;;;5.57;3.17;;;3.60;99.90;;;;;;5075590;28;20020;-76
2021/01/20 06:07:58;;;;;;;6.57;3.20;;;3.60;99.90;;;;;;5057869;28;20036;-76
2021/01/20 06:10:24;;;;;;;6.88;3.30;;;3.70;99.90;;;;;;5085595;28;20024;-77
2021/01/20 06:12:51;;;;;;;6.68;3.40;;;3.70;99.90;;;;;;5083729;28;20025;-77
2021/01/20 06:15:19;;;;;;;6.47;3.00;;;3.70;99.90;;;;;;5073231;28;20024;-76
2021/01/20 06:17:47;;;;;;;5.88;2.90;;;3.80;99.90;;;;;;5073795;28;20028;-76
2021/01/20 06:20:13;;;;;;;5.25;2.97;;;3.80;99.90;;;;;;5080392;28;20412;-76
2021/01/20 06:22:53;;;;;;;6.35;3.15;;;3.80;99.90;;;;;;5075809;28;20028;-76
2021/01/20 06:25:33;;;;;;;6.82;3.60;;;3.80;99.90;;;;;;5054744;28;20108;-76
2021/01/20 06:28:08;;;;;;;5.35;2.88;;;3.80;99.90;;;;;;5087210;28;20035;-76
2021/01/20 06:30:46;;;;;;;5.97;3.28;;;3.70;99.90;;;;;;5083872;28;20024;-76
2021/01/20 06:33:18;;;;;;;5.65;2.70;;;3.70;99.90;;;;;;5083095;28;20412;-77
2021/01/20 06:35:50;;;;;;;5.93;3.20;;;3.80;99.90;;;;;;5090198;28;20020;-77
2021/01/20 06:38:28;;;;;;;6.72;3.10;;;3.80;99.90;;;;;;5064870;28;20058;-76
2021/01/20 06:40:57;;;;;;;5.68;3.38;;;3.80;99.90;;;;;;5073102;28;20047;-76
2021/01/20 06:43:47;;;;;;;6.47;3.25;;;3.80;99.90;;;;;;5085629;28;20220;-76
2021/01/20 06:46:18;;;;;;;6.05;3.15;;;3.80;99.90;;;;;;5088557;28;20060;-76
2021/01/20 06:48:56;;;;;;;5.53;3.13;;;3.90;99.90;;;;;;5084827;28;20890;-76
2021/01/20 06:51:23;;;;;;;6.30;2.92;;;3.90;99.90;;;;;;5087553;28;20277;-76
2021/01/20 06:54:07;;;;;;;5.78;3.10;;;3.90;99.90;;;;;;5076952;28;20024;-76
2021/01/20 06:56:44;;;;;;;6.43;3.40;;;3.80;99.90;;;;;;5076519;28;20569;-76
2021/01/20 06:59:33;;;;;;;6.55;3.58;;;3.90;99.90;;;;;;5073272;28;20065;-76
2021/01/20 07:02:02;;;;;;;6.63;3.55;;;3.90;99.90;;;;;;5074075;28;20218;-76
2021/01/20 07:04:39;;;;;;;7.60;3.25;;;3.80;99.90;;;;;;5073624;28;20101;-77
2021/01/20 07:07:11;;;;;;;6.10;3.42;;;3.80;99.90;;;;;;5074720;28;20032;-77
2021/01/20 07:09:57;;;;;;;;;;;3.80;99.90;;;;;;5078736;27;20058;-76
2021/01/20 07:12:30;;;;;;;7.07;3.63;;;3.90;99.90;;;;;;5074136;28;20497;-76
2021/01/20 07:15:01;;;;;;;5.30;3.20;;;3.90;99.90;;;;;;5079776;28;20163;-77
2021/01/20 07:17:30;;;;;;;6.80;3.35;;;3.80;99.90;;;;;;5043494;28;20365;-76
2021/01/20 07:19:56;;;;;;;6.93;3.50;;;3.80;99.90;;;;;;5063749;28;20028;-76
2021/01/20 07:22:21;;;;;;;7.40;3.45;;;3.80;99.90;;;;;;5053030;28;20047;-76
2021/01/20 07:24:50;;;;;;;5.38;2.92;;;3.90;99.90;;;;;;5078202;28;20078;-76
2021/01/20 07:27:20;;;;;;;5.60;3.00;;;3.90;99.90;;;;;;5086733;28;20049;-76
2021/01/20 07:29:48;;;;;;;6.72;3.25;;;3.90;99.90;;;;;;5088101;28;20024;-76
2021/01/20 07:32:14;;;;;;;5.55;3.05;;;3.90;99.90;;;;;;5086633;28;20086;-76
2021/01/20 07:34:43;;;;;;;5.40;3.30;;;3.90;99.90;;;;;;5072407;28;20082;-76
2021/01/20 07:37:18;;;;;;;6.13;3.28;;;3.90;99.90;;;;;;5092186;28;20038;-76
2021/01/20 07:39:44;;;;;;;5.13;2.90;;;3.90;99.90;;;;;;5091060;28;20556;-76
2021/01/20 07:42:15;;;;;;;6.50;3.30;;;4.00;99.90;;;;;;5069551;28;20039;-76
2021/01/20 07:44:51;;;;;;;5.78;3.15;;;3.90;99.90;;;;;;5090566;28;20285;-76
2021/01/20 07:47:19;;;;;;;6.25;3.50;;;3.90;99.90;;;;;;5091321;28;20115;-76
2021/01/20 07:49:56;;;;;;;6.47;3.58;;;3.90;99.90;;;;;;5058496;28;20020;-76
2021/01/20 07:52:24;;;;;;;6.95;3.63;;;3.90;99.90;;;;;;5094687;28;20065;-75
2021/01/20 07:54:54;;;;;;;6.68;3.50;;;3.90;99.90;;;;;;5088200;28;20169;-75
2021/01/20 07:57:20;;;;;;;5.90;3.55;;;3.90;99.90;;;;;;5095179;28;20054;-75
2021/01/20 08:00:08;;;;;;;8.52;3.60;;;3.90;99.90;;;;;;5079978;28;20048;-76
2021/01/20 08:02:34;;;;;;;6.03;3.40;;;3.90;99.90;;;;;;5070314;28;20020;-75
2021/01/20 08:05:00;;;;;;;6.28;3.40;;;3.90;99.90;;;;;;5091712;28;20040;-76
2021/01/20 08:07:26;;;;;;;8.15;3.58;;;3.90;99.90;;;;;;5077445;28;20195;-76
2021/01/20 08:09:51;;;;;;;6.90;3.72;;;3.90;99.90;;;;;;5093724;28;20177;-75
2021/01/20 08:12:22;;;;;;;6.70;3.47;;;4.00;99.90;;;;;;5089650;28;20406;-76
2021/01/20 08:14:48;;;;;;;5.60;3.50;;;4.00;99.90;;;;;;5079755;28;20030;-76
2021/01/20 08:17:14;;;;;;;7.13;3.50;;;4.00;99.90;;;;;;5089804;28;20384;-75
2021/01/20 08:19:39;;;;;;;6.60;3.70;;;4.00;99.90;;;;;;5071625;28;20086;-75
2021/01/20 08:22:14;;;;;;;6.90;3.67;;;4.10;99.90;;;;;;5056442;28;20032;-76
2021/01/20 08:24:46;;;;;;;6.65;3.85;;;4.10;99.90;;;;;;5078030;28;20028;-76
2021/01/20 08:27:17;;;;;;;5.55;2.65;;;4.10;99.90;;;;;;5091255;28;20032;-75
2021/01/20 08:29:54;;;;;;;7.05;3.70;;;4.10;99.90;;;;;;5087795;28;20055;-75
2021/01/20 08:32:23;;;;;;;6.03;3.70;;;4.20;99.90;;;;;;5089029;28;20052;-76
2021/01/20 08:34:55;;;;;;;6.40;3.88;;;4.20;99.90;;;;;;5088955;28;20028;-76
2021/01/20 08:37:42;;;;;;;8.02;3.80;;;4.20;99.90;;;;;;5068180;28;20243;-75
2021/01/20 08:40:15;;;;;;;6.40;3.70;;;4.20;99.90;;;;;;5068805;28;20024;-75
2021/01/20 08:42:40;;;;;;;7.45;3.80;;;4.20;99.90;;;;;;5087749;28;20024;-76
2021/01/20 08:45:10;;;;;;;6.35;3.38;;;4.20;99.90;;;;;;5071168;28;20566;-75
2021/01/20 08:47:43;;;;;;;7.35;3.83;;;4.30;99.90;;;;;;5088963;28;20040;-75
2021/01/20 08:50:09;;;;;;;6.25;3.72;;;4.30;99.90;;;;;;5092710;28;20056;-75
2021/01/20 08:52:46;;;;;;;6.50;3.75;;;4.30;99.90;;;;;;5071310;28;20434;-75
2021/01/20 08:55:22;;;;;;;7.63;3.50;;;4.30;99.90;;;;;;5089248;28;20093;-75
2021/01/20 08:57:48;;;;;;;7.00;3.78;;;4.30;99.90;;;;;;5069505;28;20028;-75
2021/01/20 09:00:14;;;;;;;5.97;3.78;;;4.30;99.90;;;;;;5061467;28;20483;-75
2021/01/20 09:02:42;;;;;;;6.78;3.70;;;4.40;99.90;;;;;;5075521;28;20035;-75
2021/01/20 09:05:08;;;;;;;7.40;3.90;;;4.40;99.90;;;;;;5085614;28;20622;-75
2021/01/20 09:07:34;;;;;;;8.88;4.05;;;4.50;99.90;;;;;;5085542;28;20036;-75
2021/01/20 09:09:59;;;;;;;8.98;3.90;;;4.40;99.90;;;;;;5086436;28;20063;-75
2021/01/20 09:12:30;;;;;;;8.13;3.80;;;4.40;99.90;;;;;;5090923;28;20028;-75
2021/01/20 09:14:56;;;;;;;7.75;3.92;;;4.50;99.90;;;;;;5086221;28;20028;-75
2021/01/20 09:17:22;;;;;;;6.45;3.60;;;4.50;99.90;;;;;;5084647;28;20017;-75
2021/01/20 09:19:50;;;;;;;7.25;3.97;;;4.50;99.90;;;;;;5087094;28;20029;-75
2021/01/20 09:22:15;;;;;;;8.35;3.85;;;4.50;99.90;;;;;;5087483;28;20436;-75
2021/01/20 09:24:41;;;;;;;7.57;3.97;;;4.50;99.90;;;;;;5087917;28;20123;-75
2021/01/20 09:27:07;;;;;;;7.88;3.90;;;4.50;99.90;;;;;;5087193;28;20038;-75
2021/01/20 09:29:32;;;;;;;7.65;3.83;;;4.50;99.90;;;;;;5085520;28;20035;-75
2021/01/20 09:31:58;;;;;;;7.63;3.38;;;4.50;99.90;;;;;;5086156;28;20350;-75
2021/01/20 09:34:31;;;;;;;8.20;3.70;;;4.60;99.90;;;;;;5086400;28;20028;-75
2021/01/20 09:36:57;;;;;;;7.45;3.53;;;4.60;99.90;;;;;;5089229;28;20028;-75
2021/01/20 09:39:22;;;;;;;7.38;4.10;;;4.60;99.90;;;;;;5084799;28;20597;-75
2021/01/20 09:41:50;;;;;;;5.63;3.50;;;4.70;99.90;;;;;;5090181;28;20043;-75
2021/01/20 09:44:18;;;;;;;7.10;3.80;;;4.70;99.90;;;;;;5072629;28;20029;-75
2021/01/20 09:46:46;;;;;;;9.57;4.03;;;4.70;99.90;;;;;;5092660;28;20105;-75
2021/01/20 09:49:12;;;;;;;6.07;3.53;;;4.70;99.90;;;;;;5089597;28;21006;-75
2021/01/20 09:51:37;;;;;;;7.65;3.58;;;4.80;99.90;;;;;;5089900;28;20111;-75
2021/01/20 09:54:03;;;;;;;6.97;3.70;;;4.80;99.90;;;;;;5088858;28;20362;-75
2021/01/20 09:56:29;;;;;;;7.70;4.03;;;4.90;99.90;;;;;;5086385;28;20469;-75
2021/01/20 09:58:54;;;;;;;7.10;3.35;;;4.90;99.90;;;;;;5090815;28;20070;-75
2021/01/20 10:01:20;;;;;;;7.60;4.00;;;5.00;99.90;;;;;;5090650;28;20457;-75
2021/01/20 10:03:46;;;;;;;7.35;3.80;;;5.00;99.90;;;;;;5083290;28;20569;-75
2021/01/20 10:06:11;;;;;;;7.45;3.95;;;5.10;99.90;;;;;;5087796;28;20036;-75
2021/01/20 10:08:39;;;;;;;7.10;3.80;;;5.10;99.90;;;;;;5073304;28;20036;-75
2021/01/20 10:11:07;;;;;;;6.47;3.67;;;5.10;99.90;;;;;;5090200;28;20350;-75
2021/01/20 10:13:35;;;;;;;6.47;3.55;;;5.20;99.90;;;;;;5088074;28;20021;-75
2021/01/20 10:16:01;;;;;;;6.80;3.83;;;5.20;99.90;;;;;;5072498;28;20067;-75
2021/01/20 10:18:26;;;;;;;6.85;4.05;;;5.30;99.90;;;;;;5084244;28;20115;-75
2021/01/20 10:20:54;;;;;;;7.70;4.00;;;5.30;99.90;;;;;;5087541;28;20052;-75
2021/01/20 10:23:24;;;;;;;7.40;4.20;;;5.30;99.90;;;;;;5086160;28;20074;-75
2021/01/20 10:25:52;;;;;;;9.63;4.13;;;5.40;99.90;;;;;;5087581;28;20028;-75
2021/01/20 10:28:18;;;;;;;7.95;4.25;;;5.40;99.90;;;;;;5086222;28;20627;-75
2021/01/20 10:30:43;;;;;;;7.57;4.25;;;5.40;99.90;;;;;;5086677;28;20048;-75
2021/01/20 10:33:10;;;;;;;7.78;3.90;;;5.50;99.90;;;;;;5076552;28;20020;-75
2021/01/20 10:35:36;;;;;;;6.97;3.80;;;5.60;99.90;;;;;;5087185;28;20500;-74
2021/01/20 10:38:01;;;;;;;7.60;4.07;;;5.60;99.90;;;;;;5087865;28;20040;-75
2021/01/20 10:40:27;;;;;;;9.00;3.88;;;5.60;99.90;;;;;;5087382;28;20024;-75
2021/01/20 10:42:53;;;;;;;6.78;3.72;;;5.60;99.90;;;;;;5057059;28;20036;-75
2021/01/20 10:45:21;;;;;;;8.07;3.95;;;5.60;99.90;;;;;;5068189;28;20024;-75
2021/01/20 10:47:49;;;;;;;9.10;4.30;;;5.60;99.90;;;;;;5104330;27;20652;-75
2021/01/20 10:50:15;;;;;;;9.38;3.97;;;5.70;99.90;;;;;;5086058;28;20028;-75
2021/01/20 10:52:43;;;;;;;7.65;3.75;;;5.80;99.90;;;;;;5070598;28;20357;-75
2021/01/20 10:55:09;;;;;;;9.27;3.85;;;5.80;99.90;;;;;;5090189;28;20107;-74
2021/01/20 10:57:34;;;;;;;10.55;4.30;;;5.90;99.90;;;;;;5082576;28;20534;-75
2021/01/20 11:00:03;;;;;;;8.25;3.92;;;5.90;99.90;;;;;;5087350;28;20122;-75
2021/01/20 11:02:31;;;;;;;9.70;4.25;;;5.90;99.90;;;;;;5077490;28;20024;-75
2021/01/20 11:04:57;;;;;;;7.18;4.10;;;6.00;99.90;;;;;;5086101;28;20024;-75
2021/01/20 11:07:24;;;;;;;7.72;3.90;;;6.00;99.90;;;;;;5086463;28;20694;-75
2021/01/20 11:09:51;;;;;;;6.35;3.50;;;6.10;99.90;;;;;;5086421;28;20055;-75
2021/01/20 11:12:22;;;;;;;8.45;4.13;;;6.10;99.90;;;;;;5089565;28;20242;-75
2021/01/20 11:14:48;;;;;;;7.03;3.60;;;6.10;99.90;;;;;;5084470;28;20499;-75
2021/01/20 11:17:16;;;;;;;7.78;3.90;;;6.20;99.90;;;;;;5084231;28;20032;-75
2021/01/20 11:19:44;;;;;;;9.13;4.00;;;6.20;99.90;;;;;;5084340;28;20090;-75
2021/01/20 11:22:12;;;;;;;10.50;7.47;;;6.20;99.90;;;;;;5084944;28;20056;-75
2021/01/20 11:24:40;;;;;;;7.78;3.95;;;6.30;99.90;;;;;;5086735;28;20058;-75
2021/01/20 11:27:06;;;;;;;9.75;4.60;;;6.20;99.90;;;;;;5088410;28;20020;-75
2021/01/20 11:29:34;;;;;;;8.70;3.75;;;6.20;99.90;;;;;;5070098;28;20032;-75
2021/01/20 11:32:01;;;;;;;6.68;3.75;;;6.30;99.90;;;;;;5085530;28;20047;-75
2021/01/20 11:34:32;;;;;;;7.20;3.53;;;6.30;99.90;;;;;;5087086;28;20115;-75
2021/01/20 11:37:00;;;;;;;7.22;3.78;;;6.30;99.90;;;;;;5087891;28;20028;-75
2021/01/20 11:39:25;;;;;;;6.80;3.90;;;6.30;99.90;;;;;;5085923;28;20032;-76
2021/01/20 11:41:54;;;;;;;7.65;3.95;;;6.40;99.90;;;;;;5087374;28;20039;-76
2021/01/20 11:44:19;;;;;;;6.10;3.72;;;6.30;99.90;;;;;;5087640;28;20029;-76
2021/01/20 11:46:45;;;;;;;7.30;4.13;;;6.40;99.90;;;;;;5086629;28;20047;-76
2021/01/20 11:49:11;;;;;;;8.45;4.22;;;6.40;99.90;;;;;;5070123;28;20044;-76
2021/01/20 11:51:37;;;;;;;8.98;4.32;;;6.40;99.90;;;;;;5089624;28;20380;-76
2021/01/20 11:54:02;;;;;;;7.85;4.45;;;6.40;99.90;;;;;;5075378;28;20028;-76
2021/01/20 11:56:33;;;;;;;7.78;4.15;;;6.40;99.90;;;;;;5076621;28;20034;-75
2021/01/20 11:59:01;;;;;;;8.35;4.28;;;6.40;99.90;;;;;;5093316;28;20052;-75
2021/01/20 12:01:31;;;;;;;6.80;4.13;;;6.40;99.90;;;;;;5090139;28;20027;-76
2021/01/20 12:04:03;;;;;;;8.93;4.20;;;6.40;99.90;;;;;;5093247;28;20028;-76
2021/01/20 12:06:29;;;;;;;8.10;4.43;;;6.40;99.90;;;;;;5076882;28;20027;-76
2021/01/20 12:09:00;;;;;;;6.78;4.35;;;6.40;99.90;;;;;;5077379;28;20028;-76
2021/01/20 12:11:25;;;;;;;7.57;4.10;;;6.40;99.90;;;;;;5087172;28;20066;-76
2021/01/20 12:13:51;;;;;;;7.18;3.95;;;6.40;99.90;;;;;;5074400;28;20055;-76
2021/01/20 12:16:22;;;;;;;8.32;4.15;;;6.50;99.90;;;;;;5091779;28;20120;-76
2021/01/20 12:18:50;;;;;;;8.00;4.32;;;6.50;99.90;;;;;;5092183;28;20028;-76
2021/01/20 12:21:16;;;;;;;7.32;4.35;;;6.50;99.90;;;;;;5077604;28;20032;-76
2021/01/20 12:23:41;;;;;;;6.93;3.75;;;6.50;99.90;;;;;;5061586;28;20027;-76
2021/01/20 12:26:09;;;;;;;8.18;4.50;;;6.50;99.90;;;;;;5090443;28;20036;-76
2021/01/20 12:28:36;;;;;;;8.05;4.13;;;6.50;99.90;;;;;;5092117;28;20457;-76
2021/01/20 12:31:04;;;;;;;7.90;4.22;;;6.50;99.90;;;;;;5088663;28;20166;-76
2021/01/20 12:33:29;;;;;;;7.60;4.28;;;6.50;99.90;;;;;;5088240;28;20039;-76
2021/01/20 12:36:00;;;;;;;8.57;3.92;;;6.50;99.90;;;;;;5076362;28;20025;-75
2021/01/20 12:38:26;;;;;;;7.57;3.92;;;6.50;99.90;;;;;;5089756;28;20143;-76
2021/01/20 12:40:54;;;;;;;6.53;3.72;;;6.50;99.90;;;;;;5090574;28;20115;-77
2021/01/20 12:43:19;;;;;;;7.32;4.55;;;6.50;99.90;;;;;;5091347;28;20123;-76
2021/01/20 12:45:45;;;;;;;6.15;3.50;;;6.50;99.90;;;;;;5089621;28;20158;-76
2021/01/20 12:48:12;;;;;;;8.55;4.22;;;6.60;99.90;;;;;;5086126;28;20043;-76
2021/01/20 12:50:38;;;;;;;6.88;4.03;;;6.60;99.90;;;;;;5090073;28;20027;-74
2021/01/20 12:53:04;;;;;;;7.32;3.90;;;6.60;99.90;;;;;;5087712;28;20024;-74
2021/01/20 12:55:34;;;;;;;6.47;3.83;;;6.60;99.90;;;;;;5080039;28;20081;-77
2021/01/20 12:58:00;;;;;;;7.80;3.80;;;6.60;99.90;;;;;;5088137;28;20035;-76
2021/01/20 13:00:26;;;;;;;6.93;3.67;;;6.60;99.90;;;;;;5088514;28;20024;-76
2021/01/20 13:02:52;;;;;;;7.45;4.18;;;6.60;99.90;;;;;;5062982;28;20028;-77
2021/01/20 13:05:22;;;;;;;7.28;3.75;;;6.60;99.90;;;;;;5088448;28;20092;-77
2021/01/20 13:07:50;;;;;;;7.28;3.63;;;6.60;99.90;;;;;;5094418;28;20441;-77